createdAt,value
2023-02-24T00:02:01.527Z,2.40
2023-02-24T00:04:31.616Z,2.55
2023-02-24T00:06:59.800Z,2.22
2023-02-24T00:09:28.615Z,2.38
2023-02-24T00:12:09.175Z,2.38
2023-02-24T00:14:38.089Z,2.28
2023-02-24T00:17:08.147Z,2.20
2023-02-24T00:19:34.977Z,1.85
2023-02-24T00:22:02.864Z,2.70
2023-02-24T00:24:29.751Z,2.55
2023-02-24T00:26:59.518Z,2.45
2023-02-24T00:29:28.122Z,2.40
2023-02-24T00:31:59.430Z,2.17
2023-02-24T00:34:30.848Z,2.17
2023-02-24T00:36:58.402Z,1.98
2023-02-24T00:39:33.507Z,1.88
2023-02-24T00:42:04.873Z,2.47
2023-02-24T00:44:45.281Z,2.33
2023-02-24T00:47:12.759Z,2.10
2023-02-24T00:49:42.489Z,2.63
2023-02-24T00:52:18.486Z,2.70
2023-02-24T00:54:49.246Z,2.13
2023-02-24T00:57:18.513Z,2.10
2023-02-24T00:59:48.182Z,2.28
2023-02-24T01:02:16.029Z,2.75
2023-02-24T01:04:44.727Z,1.92
2023-02-24T01:07:13.509Z,2.30
2023-02-24T01:09:41.625Z,2.10
2023-02-24T01:12:38.385Z,2.08
2023-02-24T01:15:09.157Z,2.40
2023-02-24T01:17:37.695Z,2.42
2023-02-24T01:20:19.696Z,2.58
2023-02-24T01:22:49.589Z,2.42
2023-02-24T01:25:16.614Z,2.15
2023-02-24T01:27:43.200Z,2.05
2023-02-24T01:30:15.613Z,2.65
2023-02-24T01:32:43.848Z,1.98
2023-02-24T01:35:12.021Z,2.03
2023-02-24T01:37:39.274Z,2.00
2023-02-24T01:40:11.912Z,2.25
2023-02-24T01:42:41.808Z,2.38
2023-02-24T01:45:17.157Z,2.30
2023-02-24T01:47:47.559Z,2.75
2023-02-24T01:50:17.401Z,2.45
2023-02-24T01:52:47.831Z,2.25
2023-02-24T01:55:20.198Z,2.40
2023-02-24T01:57:48.973Z,2.08
2023-02-24T02:00:37.158Z,2.38
2023-02-24T02:03:20.106Z,2.05
2023-02-24T02:05:51.656Z,2.47
2023-02-24T02:08:21.367Z,2.15
2023-02-24T02:10:47.975Z,2.75
2023-02-24T02:13:21.050Z,2.20
2023-02-24T02:16:01.093Z,2.13
2023-02-24T02:18:38.290Z,2.45
2023-02-24T02:21:45.060Z,2.42
2023-02-24T02:24:30.218Z,2.20
2023-02-24T02:27:20.883Z,2.17
2023-02-24T02:29:51.042Z,2.28
2023-02-24T02:32:57.823Z,2.10
2023-02-24T02:35:49.714Z,1.90
2023-02-24T02:38:34.636Z,1.65
2023-02-24T02:41:17.203Z,2.05
2023-02-24T02:44:22.787Z,1.65
2023-02-24T02:47:00.458Z,2.80
2023-02-24T02:49:34.814Z,2.05
2023-02-24T02:52:07.594Z,1.90
2023-02-24T02:54:45.401Z,2.28
2023-02-24T02:57:20.474Z,2.08
2023-02-24T02:59:56.197Z,1.80
2023-02-24T03:02:28.488Z,1.83
2023-02-24T03:05:01.979Z,2.33
2023-02-24T03:07:35.105Z,1.85
2023-02-24T03:10:10.804Z,1.40
2023-02-24T03:12:40.838Z,1.70
2023-02-24T03:15:10.866Z,1.83
2023-02-24T03:17:41.588Z,1.92
2023-02-24T03:20:20.117Z,1.63
2023-02-24T03:22:52.876Z,1.80
2023-02-24T03:25:25.218Z,1.70
2023-02-24T03:28:01.595Z,2.38
2023-02-24T03:30:38.500Z,1.73
2023-02-24T03:33:19.945Z,1.85
2023-02-24T03:35:51.096Z,1.77
2023-02-24T03:38:19.910Z,1.65
2023-02-24T03:40:46.623Z,1.95
2023-02-24T03:43:26.134Z,1.92
2023-02-24T03:45:55.701Z,2.10
2023-02-24T03:48:25.150Z,1.60
2023-02-24T03:50:53.131Z,1.85
2023-02-24T03:54:09.581Z,1.80
2023-02-24T03:56:50.577Z,1.75
2023-02-24T03:59:34.099Z,1.88
2023-02-24T04:02:14.499Z,2.15
2023-02-24T04:05:13.719Z,2.00
2023-02-24T04:08:07.563Z,1.77
2023-02-24T04:10:41.512Z,1.98
2023-02-24T04:13:28.417Z,1.88
2023-02-24T04:16:17.086Z,2.03
2023-02-24T04:18:49.534Z,1.45
2023-02-24T04:21:20.303Z,2.22
2023-02-24T04:23:47.985Z,2.33
2023-02-24T04:26:17.672Z,1.75
2023-02-24T04:28:48.500Z,2.08
2023-02-24T04:31:18.488Z,1.83
2023-02-24T04:33:50.439Z,1.42
2023-02-24T04:36:21.573Z,1.60
2023-02-24T04:38:48.805Z,1.60
2023-02-24T04:41:23.113Z,1.60
2023-02-24T04:43:53.649Z,1.38
2023-02-24T04:46:20.339Z,0.88
2023-02-24T04:48:46.974Z,1.55
2023-02-24T04:51:14.547Z,1.50
2023-02-24T04:53:41.027Z,1.40
2023-02-24T04:56:11.156Z,1.73
2023-02-24T04:58:39.775Z,1.52
2023-02-24T05:01:10.208Z,1.50
2023-02-24T05:03:38.618Z,1.48
2023-02-24T05:06:06.568Z,1.27
2023-02-24T05:08:33.943Z,1.40
2023-02-24T05:11:03.820Z,1.42
2023-02-24T05:13:31.915Z,1.48
2023-02-24T05:16:04.495Z,1.27
2023-02-24T05:18:37.203Z,1.70
2023-02-24T05:21:30.403Z,1.70
2023-02-24T05:23:59.411Z,1.40
2023-02-24T05:26:27.505Z,1.42
2023-02-24T05:28:56.673Z,1.48
2023-02-24T05:31:29.037Z,1.05
2023-02-24T05:34:02.718Z,1.35
2023-02-24T05:36:33.319Z,1.35
2023-02-24T05:39:06.726Z,1.20
2023-02-24T05:41:38.816Z,1.30
2023-02-24T05:44:12.092Z,1.08
2023-02-24T05:46:41.291Z,1.15
2023-02-24T05:49:14.313Z,0.93
2023-02-24T05:51:43.435Z,0.95
2023-02-24T05:54:13.081Z,1.02
2023-02-24T05:56:43.744Z,1.10
2023-02-24T05:59:12.448Z,1.08
2023-02-24T06:01:47.313Z,1.35
2023-02-24T06:04:21.044Z,1.55
2023-02-24T06:06:55.121Z,1.30
2023-02-24T06:09:23.448Z,1.20
2023-02-24T06:11:50.306Z,1.05
2023-02-24T06:14:17.020Z,1.00
2023-02-24T06:16:43.712Z,1.20
2023-02-24T06:19:13.455Z,1.20
2023-02-24T06:21:41.647Z,1.27
2023-02-24T06:24:18.482Z,1.40
2023-02-24T06:26:46.440Z,1.73
2023-02-24T06:29:15.078Z,2.28
2023-02-24T06:31:43.223Z,1.33
2023-02-24T06:34:11.165Z,1.58
2023-02-24T06:36:38.193Z,1.25
2023-02-24T06:39:08.120Z,1.45
2023-02-24T06:41:40.683Z,1.10
2023-02-24T06:44:07.312Z,1.42
2023-02-24T06:46:33.840Z,1.50
2023-02-24T06:49:00.324Z,1.50
2023-02-24T06:51:30.145Z,0.90
2023-02-24T06:53:59.387Z,0.85
2023-02-24T06:56:27.051Z,0.55
2023-02-24T06:58:55.853Z,1.83
2023-02-24T07:01:25.984Z,1.20
2023-02-24T07:04:00.514Z,1.00
2023-02-24T07:06:29.745Z,1.20
2023-02-24T07:08:58.528Z,0.70
2023-02-24T07:11:25.893Z,0.93
2023-02-24T07:13:54.509Z,0.95
2023-02-24T07:16:26.039Z,0.70
2023-02-24T07:18:56.968Z,1.15
2023-02-24T07:21:25.979Z,0.88
2023-02-24T07:23:58.932Z,0.82
2023-02-24T07:26:27.922Z,0.90
2023-02-24T07:28:56.656Z,0.98
2023-02-24T07:31:26.011Z,1.10
2023-02-24T07:34:02.010Z,1.10
2023-02-24T07:36:38.746Z,1.20
2023-02-24T07:39:08.107Z,1.20
2023-02-24T07:41:34.992Z,1.27
2023-02-24T07:44:03.416Z,0.60
2023-02-24T07:46:30.374Z,0.75
2023-02-24T07:48:59.856Z,0.80
2023-02-24T07:51:28.065Z,0.70
2023-02-24T07:53:58.833Z,0.80
2023-02-24T07:56:27.591Z,0.98
2023-02-24T07:59:00.241Z,0.73
2023-02-24T08:01:38.811Z,0.88
2023-02-24T08:04:12.493Z,0.85
2023-02-24T08:06:46.122Z,0.73
2023-02-24T08:09:16.838Z,0.60
2023-02-24T08:11:46.233Z,0.65
2023-02-24T08:14:14.108Z,0.80
2023-02-24T08:16:44.755Z,0.85
2023-02-24T08:19:20.887Z,0.70
2023-02-24T08:21:51.509Z,0.63
2023-02-24T08:24:25.301Z,0.80
2023-02-24T08:27:06.388Z,0.40
2023-02-24T08:29:40.318Z,0.80
2023-02-24T08:32:09.417Z,0.80
2023-02-24T08:34:37.430Z,0.77
2023-02-24T08:37:05.164Z,0.65
2023-02-24T08:39:36.437Z,0.82
2023-02-24T08:42:03.367Z,0.85
2023-02-24T08:44:29.886Z,0.65
2023-02-24T08:46:56.481Z,0.75
2023-02-24T08:49:28.409Z,0.80
2023-02-24T08:51:54.919Z,0.63
2023-02-24T08:54:27.280Z,1.00
2023-02-24T08:56:56.209Z,0.95
2023-02-24T08:59:38.552Z,0.70
2023-02-24T09:02:24.457Z,0.77
2023-02-24T09:05:00.127Z,0.60
2023-02-24T09:07:35.530Z,0.80
2023-02-24T09:10:11.455Z,0.50
2023-02-24T09:12:41.281Z,0.65
2023-02-24T09:15:10.187Z,0.82
2023-02-24T09:17:45.953Z,0.90
2023-02-24T09:20:28.195Z,0.70
2023-02-24T09:23:08.808Z,1.10
2023-02-24T09:25:41.685Z,0.82
2023-02-24T09:28:16.960Z,0.90
2023-02-24T09:31:04.905Z,1.10
2023-02-24T09:33:41.636Z,1.25
2023-02-24T09:36:13.755Z,1.50
2023-02-24T09:39:00.877Z,1.58
2023-02-24T09:42:03.863Z,0.95
2023-02-24T09:44:41.016Z,1.20
2023-02-24T09:47:31.561Z,1.23
2023-02-24T09:50:04.537Z,1.23
2023-02-24T09:52:41.359Z,1.08
2023-02-24T09:55:38.904Z,1.58
2023-02-24T09:58:43.056Z,1.63
2023-02-24T10:01:23.341Z,1.52
2023-02-24T10:04:28.948Z,1.45
2023-02-24T10:07:06.565Z,1.25
2023-02-24T10:09:43.378Z,1.02
2023-02-24T10:12:20.225Z,1.27
2023-02-24T10:15:20.493Z,1.00
2023-02-24T10:17:56.513Z,1.45
2023-02-24T10:20:39.362Z,1.40
2023-02-24T10:23:12.377Z,1.30
2023-02-24T10:25:42.453Z,1.55
2023-02-24T10:28:39.925Z,1.30
2023-02-24T10:31:26.764Z,1.20
2023-02-24T10:34:07.068Z,1.20
2023-02-24T10:36:37.925Z,1.15
2023-02-24T10:39:15.721Z,1.23
2023-02-24T10:41:57.316Z,1.63
2023-02-24T10:44:27.294Z,1.27
2023-02-24T10:47:13.119Z,1.40
2023-02-24T10:49:57.023Z,1.33
2023-02-24T10:52:45.366Z,1.42
2023-02-24T10:55:40.380Z,0.75
2023-02-24T10:58:07.635Z,1.55
2023-02-24T11:01:07.455Z,1.50
2023-02-24T11:03:42.355Z,1.48
2023-02-24T11:06:43.491Z,1.13
2023-02-24T11:09:32.200Z,1.58
2023-02-24T11:12:31.292Z,1.40
2023-02-24T11:15:20.774Z,1.45
2023-02-24T11:17:54.993Z,1.30
2023-02-24T11:20:49.527Z,1.58
2023-02-24T11:23:22.282Z,1.58
2023-02-24T11:25:55.416Z,1.58
2023-02-24T11:28:41.818Z,1.70
2023-02-24T11:31:26.454Z,1.75
2023-02-24T11:34:30.838Z,1.35
2023-02-24T11:37:16.803Z,1.65
2023-02-24T11:39:46.033Z,1.67
2023-02-24T11:42:16.518Z,1.63
2023-02-24T11:44:53.504Z,1.70
2023-02-24T11:47:31.187Z,1.95
2023-02-24T11:50:08.693Z,1.52
2023-02-24T11:52:40.925Z,1.60
2023-02-24T11:55:23.235Z,1.50
2023-02-24T11:57:54.626Z,1.83
2023-02-24T12:00:24.791Z,3.22
2023-02-24T12:03:13.013Z,2.53
2023-02-24T12:05:52.574Z,1.70
2023-02-24T12:08:28.392Z,2.55
2023-02-24T12:11:16.479Z,2.55
2023-02-24T12:13:52.680Z,2.25
2023-02-24T12:16:28.869Z,1.98
2023-02-24T12:19:04.420Z,1.60
2023-02-24T12:21:39.467Z,2.20
2023-02-24T12:24:12.336Z,2.03
2023-02-24T12:27:09.325Z,2.33
2023-02-24T12:29:48.588Z,2.92
2023-02-24T12:32:41.525Z,2.88
2023-02-24T12:35:59.505Z,2.78
2023-02-24T12:38:50.654Z,2.72
2023-02-24T12:41:32.287Z,2.40
2023-02-24T12:44:26.728Z,2.15
2023-02-24T12:47:06.527Z,2.30
2023-02-24T12:49:43.098Z,2.78
2023-02-24T12:52:12.737Z,2.17
2023-02-24T12:54:55.021Z,2.75
2023-02-24T12:57:41.389Z,3.60
2023-02-24T13:00:17.983Z,2.80
2023-02-24T13:03:00.180Z,3.28
2023-02-24T13:05:37.690Z,2.80
2023-02-24T13:08:31.692Z,3.20
2023-02-24T13:10:58.188Z,2.92
2023-02-24T13:13:28.099Z,3.22
2023-02-24T13:15:57.550Z,3.08
2023-02-24T13:18:33.345Z,3.10
2023-02-24T13:21:24.744Z,5.32
2023-02-24T13:24:01.043Z,3.42
2023-02-24T13:26:30.837Z,3.53
2023-02-24T13:29:13.497Z,3.47
2023-02-24T13:31:45.871Z,3.97
2023-02-24T13:34:30.754Z,3.33
2023-02-24T13:36:57.649Z,3.63
2023-02-24T13:39:35.127Z,3.45
2023-02-24T13:42:19.938Z,3.33
2023-02-24T13:45:06.787Z,3.75
2023-02-24T13:47:45.572Z,3.08
2023-02-24T13:50:33.890Z,3.58
2023-02-24T13:53:29.485Z,3.50
2023-02-24T13:56:20.161Z,3.45
2023-02-24T13:58:55.790Z,3.65
2023-02-24T14:01:25.724Z,3.53
2023-02-24T14:04:22.648Z,3.90
2023-02-24T14:06:53.890Z,3.80
2023-02-24T14:09:27.033Z,3.70
2023-02-24T14:12:30.575Z,4.32
2023-02-24T14:14:57.193Z,4.20
2023-02-24T14:17:34.138Z,4.07
2023-02-24T14:20:06.669Z,4.38
2023-02-24T14:22:34.735Z,3.97
2023-02-24T14:25:02.696Z,3.97
2023-02-24T14:27:29.354Z,4.30
2023-02-24T14:29:56.054Z,4.10
2023-02-24T14:32:25.617Z,3.78
2023-02-24T14:34:53.468Z,3.92
2023-02-24T14:37:26.608Z,3.95
2023-02-24T14:39:55.199Z,4.45
2023-02-24T14:42:22.135Z,4.20
2023-02-24T14:44:54.302Z,3.58
2023-02-24T14:47:23.218Z,4.35
2023-02-24T14:50:03.181Z,3.80
2023-02-24T14:52:39.620Z,4.03
2023-02-24T14:55:16.521Z,4.60
2023-02-24T14:57:50.824Z,4.28
2023-02-24T15:00:24.172Z,4.30
2023-02-24T15:03:04.940Z,3.38
2023-02-24T15:05:31.813Z,3.83
2023-02-24T15:08:00.847Z,4.53
2023-02-24T15:10:30.298Z,4.03
2023-02-24T15:13:26.297Z,4.13
2023-02-24T15:15:53.048Z,3.72
2023-02-24T15:18:29.182Z,4.40
2023-02-24T15:21:04.658Z,4.43
2023-02-24T15:23:36.820Z,4.43
2023-02-24T15:26:08.636Z,4.43
2023-02-24T15:28:37.066Z,4.55
2023-02-24T15:31:15.881Z,5.05
2023-02-24T15:33:45.581Z,4.93
2023-02-24T15:36:18.391Z,5.57
2023-02-24T15:38:45.810Z,5.72
2023-02-24T15:41:16.046Z,6.40
2023-02-24T15:43:52.725Z,6.85
2023-02-24T15:46:19.423Z,5.47
2023-02-24T15:48:48.385Z,5.80
2023-02-24T15:51:29.070Z,5.53
2023-02-24T15:53:55.624Z,6.03
2023-02-24T15:56:23.046Z,5.28
2023-02-24T15:58:49.972Z,5.68
2023-02-24T16:01:16.528Z,5.72
2023-02-24T16:03:43.192Z,5.75
2023-02-24T16:06:28.733Z,5.63
2023-02-24T16:08:57.056Z,5.60
2023-02-24T16:11:27.969Z,5.75
2023-02-24T16:14:00.041Z,5.75
2023-02-24T16:16:27.229Z,6.03
2023-02-24T16:18:54.345Z,5.80
2023-02-24T16:21:20.883Z,6.15
2023-02-24T16:23:47.585Z,6.03
2023-02-24T16:26:17.520Z,5.75
2023-02-24T16:28:55.614Z,6.10
2023-02-24T16:31:26.555Z,5.75
2023-02-24T16:33:55.754Z,6.97
2023-02-24T16:36:25.338Z,6.63
2023-02-24T16:38:52.358Z,5.93
2023-02-24T16:41:19.049Z,5.80
2023-02-24T16:46:47.762Z,5.85
2023-02-24T16:49:18.990Z,7.30
2023-02-24T16:51:45.943Z,6.68
2023-02-24T16:54:12.429Z,7.15
2023-02-24T16:56:38.933Z,8.38
2023-02-24T16:59:05.543Z,9.23
2023-02-24T17:01:32.329Z,7.35
2023-02-24T17:03:59.041Z,6.68
2023-02-24T17:06:26.129Z,7.10
2023-02-24T17:08:52.857Z,7.10
2023-02-24T17:11:20.972Z,6.82
2023-02-24T17:13:47.768Z,7.40
2023-02-24T17:16:14.409Z,7.22
2023-02-24T17:18:40.856Z,7.43
2023-02-24T17:21:07.447Z,7.00
2023-02-24T17:23:33.940Z,7.55
2023-02-24T17:26:02.196Z,6.90
2023-02-24T17:28:29.346Z,6.55
2023-02-24T17:30:56.261Z,6.60
2023-02-24T17:33:22.888Z,7.47
2023-02-24T17:35:49.419Z,8.00
2023-02-24T17:38:18.420Z,7.10
2023-02-24T17:40:45.803Z,6.82
2023-02-24T17:43:15.132Z,6.97
2023-02-24T17:45:44.839Z,6.63
2023-02-24T17:48:12.870Z,6.60
2023-02-24T17:50:45.677Z,6.00
2023-02-24T17:53:12.499Z,6.85
2023-02-24T17:55:40.394Z,6.85
2023-02-24T17:58:09.640Z,6.03
2023-02-24T18:00:36.216Z,6.18
2023-02-24T18:03:03.639Z,5.90
2023-02-24T18:05:30.203Z,6.45
2023-02-24T18:07:59.894Z,6.25
2023-02-24T18:10:27.278Z,6.85
2023-02-24T18:12:53.885Z,6.32
2023-02-24T18:15:20.473Z,7.10
2023-02-24T18:17:46.991Z,7.10
2023-02-24T18:20:14.161Z,7.32
2023-02-24T18:22:40.620Z,7.45
2023-02-24T18:25:07.516Z,7.22
2023-02-24T18:27:34.061Z,7.13
2023-02-24T18:30:00.519Z,7.60
2023-02-24T18:32:27.389Z,7.80
2023-02-24T18:34:54.423Z,8.43
2023-02-24T18:37:22.087Z,8.50
2023-02-24T18:39:48.634Z,9.50
2023-02-24T18:42:15.198Z,7.80
2023-02-24T18:44:41.631Z,10.23
2023-02-24T18:47:09.830Z,8.38
2023-02-24T18:49:37.364Z,8.23
2023-02-24T18:52:05.360Z,8.88
2023-02-24T18:54:32.845Z,8.45
2023-02-24T18:56:59.293Z,9.30
2023-02-24T18:59:27.620Z,9.02
2023-02-24T19:01:56.716Z,8.93
2023-02-24T19:04:24.393Z,8.70
2023-02-24T19:06:50.962Z,9.30
2023-02-24T19:09:21.543Z,8.10
2023-02-24T19:11:49.630Z,7.10
2023-02-24T19:14:16.964Z,6.80
2023-02-24T19:16:43.834Z,5.82
2023-02-24T19:19:14.934Z,6.10
2023-02-24T19:21:41.876Z,6.35
2023-02-24T19:24:11.073Z,6.22
2023-02-24T19:26:38.627Z,5.15
2023-02-24T19:29:05.677Z,4.00
2023-02-24T19:31:34.343Z,3.40
2023-02-24T19:34:03.887Z,2.50
2023-02-24T19:36:33.001Z,2.17
2023-02-24T19:38:59.537Z,2.35
2023-02-24T19:41:26.304Z,2.15
2023-02-24T19:43:53.259Z,2.00
2023-02-24T19:46:20.038Z,1.92
2023-02-24T19:48:48.433Z,2.20
2023-02-24T19:51:21.604Z,2.00
2023-02-24T19:53:52.510Z,1.73
2023-02-24T19:56:27.821Z,1.48
2023-02-24T19:58:56.058Z,2.13
2023-02-24T20:01:23.443Z,1.95
2023-02-24T20:03:50.407Z,1.83
2023-02-24T20:06:25.698Z,1.83
2023-02-24T20:08:52.729Z,1.75
2023-02-24T20:11:20.522Z,2.40
2023-02-24T20:13:48.043Z,2.22
2023-02-24T20:16:17.176Z,2.25
2023-02-24T20:18:44.621Z,2.53
2023-02-24T20:21:12.275Z,2.13
2023-02-24T20:23:40.792Z,2.50
2023-02-24T20:26:09.712Z,2.42
2023-02-24T20:28:36.649Z,2.30
2023-02-24T20:31:10.331Z,2.50
2023-02-24T20:33:38.864Z,2.45
2023-02-24T20:36:11.434Z,2.15
2023-02-24T20:38:39.056Z,3.00
2023-02-24T20:41:06.594Z,2.78
2023-02-24T20:43:33.315Z,2.35
2023-02-24T20:46:00.365Z,2.22
2023-02-24T20:48:26.838Z,2.90
2023-02-24T20:50:53.339Z,2.22
2023-02-24T20:53:19.790Z,2.40
2023-02-24T20:55:46.403Z,2.42
2023-02-24T20:58:13.151Z,2.75
2023-02-24T21:00:40.545Z,2.25
2023-02-24T21:03:11.874Z,2.60
2023-02-24T21:05:39.230Z,2.42
2023-02-24T21:08:06.069Z,2.53
2023-02-24T21:10:32.571Z,2.33
2023-02-24T21:12:59.167Z,2.63
2023-02-24T21:15:25.742Z,2.67
2023-02-24T21:17:53.654Z,2.83
2023-02-24T21:20:20.332Z,2.78
2023-02-24T21:22:46.819Z,2.95
2023-02-24T21:25:13.308Z,2.53
2023-02-24T21:27:39.834Z,2.88
2023-02-24T21:30:07.730Z,2.65
2023-02-24T21:32:34.487Z,3.00
2023-02-24T21:35:02.033Z,2.65
2023-02-24T21:37:28.922Z,2.97
2023-02-24T21:39:55.521Z,2.72
2023-02-24T21:42:22.654Z,2.63
2023-02-24T21:44:51.871Z,3.22
2023-02-24T21:47:18.728Z,3.10
2023-02-24T21:49:46.140Z,2.60
2023-02-24T21:52:13.111Z,3.13
2023-02-24T21:54:39.881Z,3.03
2023-02-24T21:57:07.355Z,3.22
2023-02-24T21:59:33.968Z,3.10
2023-02-24T22:02:00.583Z,3.05
2023-02-24T22:04:27.110Z,3.17
2023-02-24T22:06:53.917Z,3.47
2023-02-24T22:09:20.700Z,3.38
2023-02-24T22:11:49.618Z,2.78
2023-02-24T22:14:16.211Z,3.47
2023-02-24T22:16:43.473Z,2.55
2023-02-24T22:19:11.006Z,3.10
2023-02-24T22:21:39.573Z,2.90
2023-02-24T22:24:06.446Z,3.03
2023-02-24T22:26:32.961Z,2.50
2023-02-24T22:29:00.792Z,2.83
2023-02-24T22:31:30.754Z,2.30
2023-02-24T22:33:57.371Z,2.28
2023-02-24T22:36:26.411Z,3.03
2023-02-24T22:38:54.713Z,2.53
2023-02-24T22:41:24.898Z,2.22
2023-02-24T22:43:52.071Z,2.13
2023-02-24T22:46:22.280Z,2.55
2023-02-24T22:48:50.305Z,2.30
2023-02-24T22:51:18.257Z,2.33
2023-02-24T22:53:48.812Z,2.72
2023-02-24T22:56:18.066Z,2.83
2023-02-24T22:58:45.326Z,2.30
2023-02-24T23:01:25.520Z,2.75
2023-02-24T23:03:52.819Z,2.30
2023-02-24T23:06:22.612Z,2.85
2023-02-24T23:08:50.568Z,2.85
2023-02-24T23:11:38.938Z,2.92
2023-02-24T23:14:09.862Z,2.72
2023-02-24T23:16:37.501Z,3.25
2023-02-24T23:19:10.565Z,2.80
2023-02-24T23:21:43.281Z,2.53
2023-02-24T23:24:11.187Z,2.85
2023-02-24T23:26:44.738Z,3.58
2023-02-24T23:29:13.421Z,3.28
2023-02-24T23:31:42.094Z,2.63
2023-02-24T23:34:09.829Z,3.00
2023-02-24T23:36:39.130Z,3.00
2023-02-24T23:39:07.135Z,3.63
2023-02-24T23:41:35.265Z,2.83
2023-02-24T23:44:01.895Z,2.55
2023-02-24T23:46:28.720Z,3.08
2023-02-24T23:48:57.207Z,2.75
2023-02-24T23:51:23.786Z,3.13
2023-02-24T23:53:50.765Z,2.95
2023-02-24T23:56:18.888Z,2.47
2023-02-24T23:58:48.990Z,2.58
